F/V Fleur Des Vagues — FPEJ — position and weather

sailwx.info

Track history (hours):
 
Tides and Currents Weather Stations Pressure Air Temp Water Temp Dewpoint Dewpoint Depression Visibility Wind Speed Wind Dir Waves Ship Positions

F/V Fleur Des Vagues

Last reported at 2017-Feb-27 03:32 UTC. Time now 2017-Feb-28 14:36 UTC.
Position N 46°30' W 001°47'.

Length 16 m.

Type: Fishing. MMSI: 227893000.

Date/timePositionNaut miles runAvg speedWind from/ knotsBaromVisibWave heightAir tempDewpointWater temp
2017-Feb-27 03:32N 46°30' W 001°47'0 0.2
2017-Feb-27 02:33N 46°30' W 001°47'3 2.8
2017-Feb-27 01:33N 46°27' W 001°47'8 7.7
2017-Feb-27 00:34N 46°20' W 001°43'9 8.6
2017-Feb-26 23:33N 46°12' W 001°39'8 8.5
2017-Feb-26 22:33N 46°03' W 001°36'8 8.3
2017-Feb-26 21:32N 45°55' W 001°33'  
2017-Feb-22 20:20N 46°09' W 001°38'6 7.9
2017-Feb-22 19:32N 46°16' W 001°41'8 7.9
2017-Feb-22 18:33N 46°23' W 001°44'7 7.4
2017-Feb-22 17:33N 46°30' W 001°48'1 1.1
2017-Feb-22 16:33N 46°29' W 001°47'8 8.2
2017-Feb-22 15:34N 46°23' W 001°56'20 8.3
2017-Feb-22 13:06N 46°11' W 002°19'5 5.0
2017-Feb-22 12:12N 46°07' W 002°24'3 1.6
2017-Feb-22 10:27N 46°05' W 002°25'4 2.9
2017-Feb-22 09:14N 46°01' W 002°24'3 1.5
2017-Feb-22 07:31N 46°04' W 002°24'4 3.7
2017-Feb-22 06:25N 46°08' W 002°24'  
2017-Feb-19 22:28N 46°13' W 001°45'8 8.3
2017-Feb-19 21:33N 46°21' W 001°46'8 8.3
2017-Feb-19 20:33N 46°29' W 001°47'1 0.9
2017-Feb-19 19:32N 46°30' W 001°47'0 0.0
2017-Feb-19 18:32N 46°30' W 001°47'0 0.0
2017-Feb-19 17:32N 46°30' W 001°47'0 0.0
2017-Feb-19 16:32N 46°30' W 001°47'0 0.0
2017-Feb-19 15:32N 46°30' W 001°47'0 0.0
2017-Feb-19 14:29N 46°30' W 001°47'0 0.0
2017-Feb-19 13:32N 46°30' W 001°47'4 4.6
2017-Feb-19 12:33N 46°26' W 001°46'8 8.5
2017-Feb-19 11:33N 46°17' W 001°45'8 8.3
2017-Feb-19 10:32N 46°09' W 001°44'8 8.4
2017-Feb-19 09:33N 46°01' W 001°43'8 8.1
2017-Feb-19 08:32N 45°52' W 001°41'  
Track history (hours):
 
Tides and Currents Weather Stations Pressure Air Temp Water Temp Dewpoint Dewpoint Depression Visibility Wind Speed Wind Dir Waves Ship Positions

F/V Fleur Des Vagues

Last reported at 2017-Feb-27 03:32 UTC. Time now 2017-Feb-28 14:36 UTC.
Position N 46°30' W 001°47'.

Length 16 m.

Type: Fishing. MMSI: 227893000.

Date/timePositionNaut miles runAvg speedWind from/ knotsBaromVisibWave heightAir tempDewpointWater temp
2017-Feb-27 03:32N 46°30' W 001°47'0 0.2
2017-Feb-27 02:33N 46°30' W 001°47'3 2.8
2017-Feb-27 01:33N 46°27' W 001°47'8 7.7
2017-Feb-27 00:34N 46°20' W 001°43'9 8.6
2017-Feb-26 23:33N 46°12' W 001°39'8 8.5
2017-Feb-26 22:33N 46°03' W 001°36'8 8.3
2017-Feb-26 21:32N 45°55' W 001°33'  
2017-Feb-22 20:20N 46°09' W 001°38'6 7.9
2017-Feb-22 19:32N 46°16' W 001°41'8 7.9
2017-Feb-22 18:33N 46°23' W 001°44'7 7.4
2017-Feb-22 17:33N 46°30' W 001°48'1 1.1
2017-Feb-22 16:33N 46°29' W 001°47'8 8.2
2017-Feb-22 15:34N 46°23' W 001°56'20 8.3
2017-Feb-22 13:06N 46°11' W 002°19'5 5.0
2017-Feb-22 12:12N 46°07' W 002°24'3 1.6
2017-Feb-22 10:27N 46°05' W 002°25'4 2.9
2017-Feb-22 09:14N 46°01' W 002°24'3 1.5
2017-Feb-22 07:31N 46°04' W 002°24'4 3.7
2017-Feb-22 06:25N 46°08' W 002°24'  
2017-Feb-19 22:28N 46°13' W 001°45'8 8.3
2017-Feb-19 21:33N 46°21' W 001°46'8 8.3
2017-Feb-19 20:33N 46°29' W 001°47'1 0.9
2017-Feb-19 19:32N 46°30' W 001°47'0 0.0
2017-Feb-19 18:32N 46°30' W 001°47'0 0.0
2017-Feb-19 17:32N 46°30' W 001°47'0 0.0
2017-Feb-19 16:32N 46°30' W 001°47'0 0.0
2017-Feb-19 15:32N 46°30' W 001°47'0 0.0
2017-Feb-19 14:29N 46°30' W 001°47'0 0.0
2017-Feb-19 13:32N 46°30' W 001°47'4 4.6
2017-Feb-19 12:33N 46°26' W 001°46'8 8.5
2017-Feb-19 11:33N 46°17' W 001°45'8 8.3
2017-Feb-19 10:32N 46°09' W 001°44'8 8.4
2017-Feb-19 09:33N 46°01' W 001°43'8 8.1
2017-Feb-19 08:32N 45°52' W 001°41'  

Dump ship's entire track history